KLWS Airport Information

Runway Information
Runway 08 Length 6511 ft width 150 ft Elevation 1427 ft Threshold N/A Heading 99
Runway 26 Length 6511 ft Width 150 ft Elevation 1434 ft Threshold N/A Heading 279
Runway 12 Length 5002 ft width 100 ft Elevation 1370 ft Threshold N/A Heading 131
Runway 30 Length 5002 ft Width 100 ft Elevation 1442 ft Threshold N/A Heading 311
Airport Frequencies
Type ASOS Name ASOS Frequency 135.575 MHZ
Type CNTR Name SEATTLE CN Frequency 123.95 MHZ
Type CTAF Name CTAF Frequency 119.4 MHZ
Type GND Name GND Frequency 121.9 MHZ
Type RDO Name BOISE RDO Frequency 122.35 MHZ
Type TWR Name TWR Frequency 119.4 MHZ
Type UNIC Name UNICOM Frequency 122.95 MHZ
Airport Navaids
Airport Weather Information & NOTAM
ADDS - METARS form results

(2058 UTC 04 October 2022)
Data provider http://aviationweather.gov/metar/data/
 
Forecast for: KLWS (LEWISTON , ID, US)
Text: KLWS 041721Z 0418/0518 VRB05KT P6SM SKC
Forecast period: 1800 UTC 04 October 2022 to 1800 UTC 05 October 2022
Forecast type: FROM: standard forecast or significant change
Winds: variable direction winds at 6 MPH (5 knots; 2.6 m/s)
Visibility: 6 or more miles (10+ km)
Clouds: clear skies
Weather: no significant weather forecast for this period